This is the latest recevied weather packets stored in our database for station/object KJ4EBE. If no packets are shown the sender has not sent any weather packets the latest 10 day(s).
| Time | Temp. | Humidity | Pressure | Rain* | Wind** | Luminosity | Snow |
|---|---|---|---|---|---|---|---|
| 1778003144 | 28.33° C | 71% | 1007.6 hPa | 0 mm | - | 836 W/m² | - |
| 1778002840 | 27.78° C | 75% | 1007.6 hPa | 0 mm | - | 712 W/m² | - |
| 1778002537 | 28.89° C | 71% | 1007.4 hPa | 0 mm | - | 557 W/m² | - |
| 1778002234 | 28.33° C | 72% | 1007.5 hPa | 0 mm | - | 717 W/m² | - |
| 1778001932 | 27.78° C | 72% | 1007.6 hPa | 0 mm | - | 784 W/m² | - |
| 1778001628 | 28.33° C | 71% | 1007.8 hPa | 0 mm | - | 777 W/m² | - |
| 1778001323 | 28.33° C | 72% | 1007.6 hPa | 0 mm | - | 769 W/m² | - |
| 1778001020 | 27.78° C | 74% | 1007.5 hPa | 0 mm | - | 685 W/m² | - |
| 1778000717 | 27.22° C | 74% | 1007.5 hPa | 0 mm | - | 811 W/m² | - |
| 1778000412 | 27.78° C | 73% | 1007.3 hPa | 0 mm | - | 585 W/m² | - |
| 1778000108 | 27.22° C | 73% | 1007.2 hPa | 0 mm | - | 546 W/m² | - |
| 1777999804 | 27.22° C | 73% | 1007.3 hPa | 0 mm | - | 864 W/m² | - |
| 1777999500 | 26.67° C | 74% | 1007.4 hPa | 0 mm | - | 806 W/m² | - |
| 1777999198 | 27.22° C | 74% | 1007.4 hPa | 0 mm | - | 695 W/m² | - |
| 1777998896 | 26.67° C | 74% | 1007.4 hPa | 0 mm | - | 666 W/m² | - |
| 1777998596 | 26.67° C | 75% | 1007.3 hPa | 0 mm | - | 702 W/m² | - |
| 1777998292 | 26.67° C | 75% | 1007.4 hPa | 0 mm | - | 516 W/m² | - |
| 1777997988 | 26.67° C | 75% | 1007.5 hPa | 0 mm | - | 358 W/m² | - |
| 1777997684 | 26.67° C | 75% | 1007.8 hPa | 0 mm | - | 681 W/m² | - |
| 1777997382 | 26.11° C | 76% | 1007.6 hPa | 0 mm | - | 439 W/m² | - |
| 1777997080 | 26.11° C | 76% | 1007.8 hPa | 0 mm | - | 548 W/m² | - |
| 1777996776 | 26.11° C | 76% | 1007.7 hPa | 0 mm | - | 478 W/m² | - |
| 1777996473 | 26.11° C | 77% | 1007.7 hPa | 0 mm | - | 491 W/m² | - |
| 1777996169 | 26.11° C | 76% | 1007.8 hPa | 0 mm | - | 494 W/m² | - |
| 1777995866 | 25.56° C | 79% | 1007.9 hPa | 0 mm | - | 537 W/m² | - |
* Rain latest hour (hover to see other rain measurements)
** Current wind speed in m/s (hover to see current wind gust speed)